createdAt,value
2018-02-14T00:00:10.083Z,1007.35
2018-02-14T00:01:10.012Z,1007.40
2018-02-14T00:02:10.012Z,1007.39
2018-02-14T00:03:10.023Z,1007.39
2018-02-14T00:04:10.025Z,1007.35
2018-02-14T00:05:10.020Z,1007.39
2018-02-14T00:06:10.015Z,1007.44
2018-02-14T00:07:10.024Z,1007.36
2018-02-14T00:08:10.021Z,1007.42
2018-02-14T00:09:11.035Z,1007.40
2018-02-14T00:10:10.032Z,1007.45
2018-02-14T00:11:10.038Z,1007.46
2018-02-14T00:12:10.032Z,1007.43
2018-02-14T00:13:10.032Z,1007.45
2018-02-14T00:14:10.030Z,1007.41
2018-02-14T00:15:10.037Z,1007.39
2018-02-14T00:16:10.044Z,1007.43
2018-02-14T00:17:10.046Z,1007.39
2018-02-14T00:18:10.047Z,1007.42
2018-02-14T00:19:10.053Z,1007.44
2018-02-14T00:20:10.042Z,1007.41
2018-02-14T00:21:10.051Z,1007.45
2018-02-14T00:22:10.065Z,1007.41
2018-02-14T00:23:10.053Z,1007.43
2018-02-14T00:24:10.051Z,1007.46
2018-02-14T00:25:10.059Z,1007.46
2018-02-14T00:26:10.061Z,1007.48
2018-02-14T00:27:10.063Z,1007.44
2018-02-14T00:28:10.067Z,1007.50
2018-02-14T00:29:10.075Z,1007.52
2018-02-14T00:30:10.065Z,1007.51
2018-02-14T00:31:10.066Z,1007.53
2018-02-14T00:32:10.072Z,1007.56
2018-02-14T00:33:11.082Z,1007.57
2018-02-14T00:34:10.068Z,1007.52
2018-02-14T00:35:11.085Z,1007.53
2018-02-14T00:36:10.069Z,1007.58
2018-02-14T00:37:10.077Z,1007.55
2018-02-14T00:38:10.078Z,1007.53
2018-02-14T00:39:10.084Z,1007.55
2018-02-14T00:40:10.081Z,1007.55
2018-02-14T00:41:10.081Z,1007.53
2018-02-14T00:42:10.106Z,1007.54
2018-02-14T00:43:10.092Z,1007.55
2018-02-14T00:44:10.086Z,1007.56
2018-02-14T00:45:10.093Z,1007.54
2018-02-14T00:46:10.087Z,1007.54
2018-02-14T00:47:10.089Z,1007.56
2018-02-14T00:48:10.096Z,1007.56
2018-02-14T00:49:10.103Z,1007.60
2018-02-14T00:50:10.094Z,1007.58
2018-02-14T00:51:10.121Z,1007.65
2018-02-14T00:52:10.101Z,1007.62
2018-02-14T00:53:10.112Z,1007.64
2018-02-14T00:54:10.109Z,1007.62
2018-02-14T00:55:10.122Z,1007.65
2018-02-14T00:56:10.107Z,1007.66
2018-02-14T00:57:10.114Z,1007.67
2018-02-14T00:58:10.148Z,1007.63
2018-02-14T00:59:10.119Z,1007.69
2018-02-14T01:00:10.113Z,1007.69
2018-02-14T01:01:10.120Z,1007.69
2018-02-14T01:02:10.120Z,1007.70
2018-02-14T01:03:10.122Z,1007.75
2018-02-14T01:04:10.124Z,1007.73
2018-02-14T01:05:10.131Z,1007.73
2018-02-14T01:06:10.121Z,1007.75
2018-02-14T01:07:10.125Z,1007.79
2018-02-14T01:08:10.128Z,1007.72
2018-02-14T01:09:10.167Z,1007.73
2018-02-14T01:10:10.130Z,1007.73
2018-02-14T01:11:10.138Z,1007.78
2018-02-14T01:12:10.130Z,1007.73
2018-02-14T01:13:10.141Z,1007.75
2018-02-14T01:14:10.135Z,1007.71
2018-02-14T01:15:10.143Z,1007.76
2018-02-14T01:16:10.139Z,1007.74
2018-02-14T01:17:10.143Z,1007.77
2018-02-14T01:18:10.145Z,1007.73
2018-02-14T01:19:10.151Z,1007.71
2018-02-14T01:20:10.149Z,1007.72
2018-02-14T01:21:10.152Z,1007.70
2018-02-14T01:22:10.149Z,1007.71
2018-02-14T01:23:11.789Z,1007.68
2018-02-14T01:24:10.160Z,1007.66
2018-02-14T01:25:10.155Z,1007.66
2018-02-14T01:26:10.201Z,1007.66
2018-02-14T01:27:10.153Z,1007.68
2018-02-14T01:28:10.157Z,1007.64
2018-02-14T01:29:10.156Z,1007.69
2018-02-14T01:30:10.162Z,1007.71
2018-02-14T01:31:10.162Z,1007.73
2018-02-14T01:32:10.167Z,1007.74
2018-02-14T01:33:10.174Z,1007.75
2018-02-14T01:34:10.183Z,1007.73
2018-02-14T01:35:10.167Z,1007.75
2018-02-14T01:36:11.176Z,1007.79
2018-02-14T01:37:10.173Z,1007.76
2018-02-14T01:38:10.172Z,1007.74
2018-02-14T01:39:10.176Z,1007.76
2018-02-14T01:40:10.177Z,1007.76
2018-02-14T01:41:10.173Z,1007.73
2018-02-14T01:42:10.181Z,1007.75
2018-02-14T01:43:10.176Z,1007.80
2018-02-14T01:44:10.190Z,1007.80
2018-02-14T01:45:10.185Z,1007.80
2018-02-14T01:46:10.188Z,1007.78
2018-02-14T01:47:10.182Z,1007.82
2018-02-14T01:48:10.190Z,1007.79
2018-02-14T01:49:10.191Z,1007.80
2018-02-14T01:50:10.187Z,1007.79
2018-02-14T01:51:10.211Z,1007.77
2018-02-14T01:52:10.197Z,1007.83
2018-02-14T01:53:10.197Z,1007.77
2018-02-14T01:54:10.201Z,1007.78
2018-02-14T01:55:10.201Z,1007.78
2018-02-14T01:56:11.227Z,1007.80
2018-02-14T01:57:10.200Z,1007.76
2018-02-14T01:58:10.211Z,1007.79
2018-02-14T01:59:10.213Z,1007.79
2018-02-14T02:00:10.219Z,1007.79
2018-02-14T02:01:10.206Z,1007.76
2018-02-14T02:02:10.238Z,1007.79
2018-02-14T02:03:10.205Z,1007.79
2018-02-14T02:04:10.219Z,1007.74
2018-02-14T02:05:10.209Z,1007.79
2018-02-14T02:06:10.225Z,1007.82
2018-02-14T02:07:10.223Z,1007.81
2018-02-14T02:08:10.223Z,1007.78
2018-02-14T02:09:10.209Z,1007.84
2018-02-14T02:10:10.244Z,1007.76
2018-02-14T02:11:10.214Z,1007.82
2018-02-14T02:12:10.219Z,1007.80
2018-02-14T02:13:10.218Z,1007.83
2018-02-14T02:14:10.221Z,1007.86
2018-02-14T02:15:10.224Z,1007.86
2018-02-14T02:16:11.230Z,1007.89
2018-02-14T02:17:10.227Z,1007.90
2018-02-14T02:18:10.230Z,1007.88
2018-02-14T02:19:10.229Z,1007.94
2018-02-14T02:20:10.238Z,1007.88
2018-02-14T02:21:10.233Z,1007.89
2018-02-14T02:22:10.230Z,1007.89
2018-02-14T02:23:10.230Z,1007.87
2018-02-14T02:24:10.233Z,1007.82
2018-02-14T02:25:10.244Z,1007.83
2018-02-14T02:26:10.274Z,1007.83
2018-02-14T02:27:10.237Z,1007.92
2018-02-14T02:28:11.262Z,1007.85
2018-02-14T02:29:10.244Z,1007.86
2018-02-14T02:30:10.250Z,1007.89
2018-02-14T02:31:10.243Z,1007.87
2018-02-14T02:32:10.252Z,1007.87
2018-02-14T02:33:10.259Z,1007.91
2018-02-14T02:34:10.252Z,1007.97
2018-02-14T02:35:11.860Z,1007.99
2018-02-14T02:36:10.261Z,1008.05
2018-02-14T02:37:10.318Z,1007.99
2018-02-14T02:38:10.253Z,1008.01
2018-02-14T02:39:10.248Z,1008.10
2018-02-14T02:40:10.258Z,1008.04
2018-02-14T02:41:10.270Z,1008.08
2018-02-14T02:42:10.273Z,1008.03
2018-02-14T02:43:10.256Z,1008.08
2018-02-14T02:44:10.292Z,1008.10
2018-02-14T02:45:10.257Z,1008.06
2018-02-14T02:46:10.263Z,1008.09
2018-02-14T02:47:10.262Z,1008.07
2018-02-14T02:48:10.271Z,1008.11
2018-02-14T02:49:10.261Z,1008.11
2018-02-14T02:50:10.302Z,1008.09
2018-02-14T02:51:10.271Z,1008.10
2018-02-14T02:52:10.279Z,1008.13
2018-02-14T02:53:10.282Z,1008.10
2018-02-14T02:54:10.275Z,1008.21
2018-02-14T02:55:10.274Z,1008.18
2018-02-14T02:56:10.395Z,1008.17
2018-02-14T02:57:10.458Z,1008.14
2018-02-14T02:58:10.274Z,1008.17
2018-02-14T02:59:10.276Z,1008.16
2018-02-14T03:00:10.359Z,1008.11
2018-02-14T03:01:10.334Z,1008.15
2018-02-14T03:02:10.280Z,1008.19
2018-02-14T03:03:10.307Z,1008.23
2018-02-14T03:04:10.294Z,1008.20
2018-02-14T03:05:10.282Z,1008.23
2018-02-14T03:06:10.291Z,1008.23
2018-02-14T03:07:10.282Z,1008.23
2018-02-14T03:08:10.287Z,1008.23
2018-02-14T03:09:10.294Z,1008.25
2018-02-14T03:10:10.302Z,1008.28
2018-02-14T03:11:10.308Z,1008.23
2018-02-14T03:12:10.298Z,1008.26
2018-02-14T03:13:10.291Z,1008.26
2018-02-14T03:14:11.302Z,1008.24
2018-02-14T03:15:10.313Z,1008.27
2018-02-14T03:16:10.306Z,1008.28
2018-02-14T03:17:10.294Z,1008.25
2018-02-14T03:18:10.301Z,1008.26
2018-02-14T03:19:10.321Z,1008.26
2018-02-14T03:20:10.311Z,1008.25
2018-02-14T03:21:10.305Z,1008.29
2018-02-14T03:22:10.307Z,1008.27
2018-02-14T03:23:10.308Z,1008.29
2018-02-14T03:24:10.314Z,1008.24
2018-02-14T03:25:10.307Z,1008.32
2018-02-14T03:26:10.311Z,1008.25
2018-02-14T03:27:10.307Z,1008.27
2018-02-14T03:28:10.314Z,1008.24
2018-02-14T03:29:10.305Z,1008.26
2018-02-14T03:30:10.341Z,1008.24
2018-02-14T03:31:10.310Z,1008.29
2018-02-14T03:32:10.315Z,1008.32
2018-02-14T03:33:10.319Z,1008.32
2018-02-14T03:34:10.320Z,1008.39
2018-02-14T03:35:10.315Z,1008.37
2018-02-14T03:36:10.326Z,1008.41
2018-02-14T03:37:10.317Z,1008.37
2018-02-14T03:38:10.327Z,1008.42
2018-02-14T03:39:10.318Z,1008.42
2018-02-14T03:40:10.325Z,1008.48
2018-02-14T03:41:10.319Z,1008.44
2018-02-14T03:42:10.326Z,1008.49
2018-02-14T03:43:10.331Z,1008.43
2018-02-14T03:44:10.329Z,1008.48
2018-02-14T03:45:10.321Z,1008.46
2018-02-14T03:46:11.327Z,1008.48
2018-02-14T03:47:10.332Z,1008.49
2018-02-14T03:48:10.341Z,1008.54
2018-02-14T03:49:10.326Z,1008.51
2018-02-14T03:50:10.331Z,1008.56
2018-02-14T03:51:10.327Z,1008.54
2018-02-14T03:52:10.342Z,1008.55
2018-02-14T03:53:10.332Z,1008.56
2018-02-14T03:54:10.339Z,1008.63
2018-02-14T03:55:10.333Z,1008.56
2018-02-14T03:56:10.346Z,1008.56
2018-02-14T03:57:10.363Z,1008.58
2018-02-14T03:58:10.337Z,1008.59
2018-02-14T03:59:10.341Z,1008.59
2018-02-14T04:00:10.340Z,1008.66
2018-02-14T04:01:10.344Z,1008.59
2018-02-14T04:02:10.351Z,1008.60
2018-02-14T04:03:10.348Z,1008.63
2018-02-14T04:04:10.351Z,1008.67
2018-02-14T04:05:10.347Z,1008.65
2018-02-14T04:06:10.347Z,1008.65
2018-02-14T04:07:10.346Z,1008.63
2018-02-14T04:08:10.352Z,1008.66
2018-02-14T04:09:10.349Z,1008.64
2018-02-14T04:10:10.369Z,1008.68
2018-02-14T04:11:10.348Z,1008.67
2018-02-14T04:12:10.353Z,1008.70
2018-02-14T04:13:10.351Z,1008.73
2018-02-14T04:14:10.359Z,1008.76
2018-02-14T04:15:10.356Z,1008.80
2018-02-14T04:16:10.362Z,1008.81
2018-02-14T04:17:10.353Z,1008.85
2018-02-14T04:18:10.357Z,1008.86
2018-02-14T04:19:10.386Z,1008.82
2018-02-14T04:20:10.368Z,1008.83
2018-02-14T04:21:10.362Z,1008.85
2018-02-14T04:22:10.363Z,1008.81
2018-02-14T04:23:10.406Z,1008.80
2018-02-14T04:24:10.375Z,1008.82
2018-02-14T04:25:10.361Z,1008.81
2018-02-14T04:26:10.362Z,1008.81
2018-02-14T04:27:10.394Z,1008.84
2018-02-14T04:28:11.371Z,1008.79
2018-02-14T04:29:10.366Z,1008.85
2018-02-14T04:30:10.381Z,1008.85
2018-02-14T04:31:10.371Z,1008.87
2018-02-14T04:32:10.379Z,1008.89
2018-02-14T04:33:10.371Z,1008.99
2018-02-14T04:34:10.381Z,1008.93
2018-02-14T04:35:10.376Z,1009.05
2018-02-14T04:36:11.389Z,1009.03
2018-02-14T04:37:10.372Z,1008.97
2018-02-14T04:38:10.371Z,1009.04
2018-02-14T04:39:10.372Z,1008.98
2018-02-14T04:40:10.377Z,1009.00
2018-02-14T04:41:10.377Z,1008.97
2018-02-14T04:42:10.379Z,1009.03
2018-02-14T04:43:10.373Z,1009.02
2018-02-14T04:44:10.382Z,1009.04
2018-02-14T04:45:10.376Z,1009.07
2018-02-14T04:46:10.391Z,1009.13
2018-02-14T04:47:10.421Z,1009.11
2018-02-14T04:48:10.386Z,1009.11
2018-02-14T04:49:10.391Z,1009.19
2018-02-14T04:50:10.390Z,1009.15
2018-02-14T04:51:10.392Z,1009.12
2018-02-14T04:52:10.396Z,1009.19
2018-02-14T04:53:10.383Z,1009.15
2018-02-14T04:54:10.388Z,1009.20
2018-02-14T04:55:10.388Z,1009.20
2018-02-14T04:56:10.394Z,1009.19
2018-02-14T04:57:10.386Z,1009.23
2018-02-14T04:58:10.396Z,1009.20
2018-02-14T04:59:10.387Z,1009.22
2018-02-14T05:00:10.391Z,1009.23
2018-02-14T05:01:10.387Z,1009.22
2018-02-14T05:02:10.396Z,1009.24
2018-02-14T05:03:10.421Z,1009.22
2018-02-14T05:04:10.393Z,1009.20
2018-02-14T05:05:10.396Z,1009.24
2018-02-14T05:06:10.399Z,1009.23
2018-02-14T05:07:10.396Z,1009.29
2018-02-14T05:08:10.404Z,1009.22
2018-02-14T05:09:10.401Z,1009.25
2018-02-14T05:10:10.405Z,1009.30
2018-02-14T05:11:10.398Z,1009.29
2018-02-14T05:12:10.401Z,1009.29
2018-02-14T05:13:10.396Z,1009.29
2018-02-14T05:14:10.398Z,1009.29
2018-02-14T05:15:10.404Z,1009.33
2018-02-14T05:16:10.409Z,1009.33
2018-02-14T05:17:10.398Z,1009.33
2018-02-14T05:18:10.409Z,1009.33
2018-02-14T05:19:10.400Z,1009.29
2018-02-14T05:20:11.418Z,1009.28
2018-02-14T05:21:10.400Z,1009.30
2018-02-14T05:22:10.420Z,1009.32
2018-02-14T05:23:10.407Z,1009.32
2018-02-14T05:24:10.410Z,1009.33
2018-02-14T05:25:10.404Z,1009.33
2018-02-14T05:26:10.446Z,1009.37
2018-02-14T05:27:10.402Z,1009.30
2018-02-14T05:28:10.410Z,1009.34
2018-02-14T05:29:10.405Z,1009.38
2018-02-14T05:30:10.411Z,1009.34
2018-02-14T05:31:10.405Z,1009.36
2018-02-14T05:32:10.411Z,1009.33
2018-02-14T05:33:10.406Z,1009.39
2018-02-14T05:34:10.414Z,1009.35
2018-02-14T05:35:10.409Z,1009.36
2018-02-14T05:36:10.416Z,1009.33
2018-02-14T05:37:10.416Z,1009.34
2018-02-14T05:38:10.419Z,1009.37
2018-02-14T05:39:10.415Z,1009.39
2018-02-14T05:40:10.425Z,1009.34
2018-02-14T05:41:10.428Z,1009.39
2018-02-14T05:42:10.426Z,1009.43
2018-02-14T05:43:10.415Z,1009.37
2018-02-14T05:44:10.420Z,1009.34
2018-02-14T05:45:10.417Z,1009.38
2018-02-14T05:46:10.419Z,1009.38
2018-02-14T05:47:10.418Z,1009.34
2018-02-14T05:48:10.422Z,1009.40
2018-02-14T05:49:10.428Z,1009.42
2018-02-14T05:50:10.425Z,1009.39
2018-02-14T05:51:10.423Z,1009.41
2018-02-14T05:52:11.425Z,1009.39
2018-02-14T05:53:10.418Z,1009.42
2018-02-14T05:54:10.450Z,1009.44
2018-02-14T05:55:10.430Z,1009.42
2018-02-14T05:56:10.423Z,1009.46
2018-02-14T05:57:10.421Z,1009.40
2018-02-14T05:58:10.430Z,1009.45
2018-02-14T05:59:10.420Z,1009.45
2018-02-14T06:00:10.431Z,1009.42
2018-02-14T06:01:10.422Z,1009.46
2018-02-14T06:02:10.440Z,1009.38
2018-02-14T06:03:10.427Z,1009.44
2018-02-14T06:04:10.429Z,1009.42
2018-02-14T06:05:10.422Z,1009.43
2018-02-14T06:06:10.429Z,1009.50
2018-02-14T06:07:10.436Z,1009.44
2018-02-14T06:08:10.459Z,1009.46
2018-02-14T06:09:10.428Z,1009.44
2018-02-14T06:10:10.440Z,1009.43
2018-02-14T06:11:10.427Z,1009.42
2018-02-14T06:12:11.441Z,1009.42
2018-02-14T06:13:10.427Z,1009.47
2018-02-14T06:14:10.450Z,1009.50
2018-02-14T06:15:10.423Z,1009.47
2018-02-14T06:16:10.436Z,1009.49
2018-02-14T06:17:10.428Z,1009.52
2018-02-14T06:18:10.433Z,1009.52
2018-02-14T06:19:10.430Z,1009.51
2018-02-14T06:20:10.442Z,1009.53
2018-02-14T06:21:10.444Z,1009.55
2018-02-14T06:22:10.451Z,1009.53
2018-02-14T06:23:10.433Z,1009.50
2018-02-14T06:24:10.453Z,1009.51
2018-02-14T06:25:10.432Z,1009.49
2018-02-14T06:26:10.437Z,1009.50
2018-02-14T06:27:10.449Z,1009.54
2018-02-14T06:28:10.435Z,1009.49
2018-02-14T06:29:10.431Z,1009.51
2018-02-14T06:30:11.442Z,1009.50
2018-02-14T06:31:10.438Z,1009.56
2018-02-14T06:32:10.438Z,1009.52
2018-02-14T06:33:10.433Z,1009.52
2018-02-14T06:34:10.436Z,1009.54
2018-02-14T06:35:10.442Z,1009.59
2018-02-14T06:36:10.443Z,1009.60
2018-02-14T06:37:10.498Z,1009.55
2018-02-14T06:38:10.443Z,1009.59
2018-02-14T06:39:10.446Z,1009.56
2018-02-14T06:40:10.463Z,1009.57
2018-02-14T06:41:10.465Z,1009.57
2018-02-14T06:42:11.446Z,1009.59
2018-02-14T06:43:10.445Z,1009.61
2018-02-14T06:44:10.447Z,1009.60
2018-02-14T06:45:10.441Z,1009.60
2018-02-14T06:46:10.443Z,1009.60
2018-02-14T06:47:10.439Z,1009.62
2018-02-14T06:48:10.452Z,1009.57
2018-02-14T06:49:10.444Z,1009.53
2018-02-14T06:50:10.450Z,1009.54
2018-02-14T06:51:10.446Z,1009.53
2018-02-14T06:52:10.449Z,1009.55
2018-02-14T06:53:10.462Z,1009.55
2018-02-14T06:54:10.462Z,1009.51
2018-02-14T06:55:10.457Z,1009.56
2018-02-14T06:56:10.451Z,1009.65
2018-02-14T06:57:10.445Z,1009.66
2018-02-14T06:58:10.448Z,1009.64
2018-02-14T06:59:10.450Z,1009.68
2018-02-14T07:00:10.454Z,1009.69
2018-02-14T07:01:10.444Z,1009.73
2018-02-14T07:02:10.449Z,1009.73
2018-02-14T07:03:10.446Z,1009.77
2018-02-14T07:04:10.455Z,1009.77
2018-02-14T07:05:10.449Z,1009.73
2018-02-14T07:06:10.457Z,1009.73
2018-02-14T07:07:10.453Z,1009.73
2018-02-14T07:08:10.467Z,1009.75
2018-02-14T07:09:10.450Z,1009.73
2018-02-14T07:10:10.454Z,1009.76
2018-02-14T07:11:10.448Z,1009.75
2018-02-14T07:12:10.452Z,1009.82
2018-02-14T07:13:10.448Z,1009.81
2018-02-14T07:14:10.454Z,1009.87
2018-02-14T07:15:10.453Z,1009.83
2018-02-14T07:16:10.459Z,1009.86
2018-02-14T07:17:10.458Z,1009.80
2018-02-14T07:18:10.464Z,1009.79
2018-02-14T07:19:10.449Z,1009.84
2018-02-14T07:20:10.458Z,1009.84
2018-02-14T07:21:10.455Z,1009.87
2018-02-14T07:22:10.453Z,1009.86
2018-02-14T07:23:10.547Z,1009.89
2018-02-14T07:24:10.456Z,1009.88
2018-02-14T07:25:10.562Z,1009.93
2018-02-14T07:26:10.457Z,1009.94
2018-02-14T07:27:10.456Z,1009.91
2018-02-14T07:28:10.455Z,1009.92
2018-02-14T07:29:10.495Z,1009.97
2018-02-14T07:30:10.454Z,1009.93
2018-02-14T07:31:10.462Z,1010.01
2018-02-14T07:32:10.460Z,1009.95
2018-02-14T07:33:10.460Z,1009.98
2018-02-14T07:34:10.456Z,1009.96
2018-02-14T07:35:10.452Z,1010.02
2018-02-14T07:36:10.451Z,1010.03
2018-02-14T07:37:10.460Z,1010.10
2018-02-14T07:38:10.469Z,1010.10
2018-02-14T07:39:10.452Z,1010.12
2018-02-14T07:40:10.455Z,1010.13
2018-02-14T07:41:10.459Z,1010.14
2018-02-14T07:42:10.467Z,1010.17
2018-02-14T07:43:10.465Z,1010.18
2018-02-14T07:44:10.467Z,1010.15
2018-02-14T07:45:10.465Z,1010.17
2018-02-14T07:46:10.475Z,1010.20
2018-02-14T07:47:10.479Z,1010.16
2018-02-14T07:48:10.463Z,1010.17
2018-02-14T07:49:10.457Z,1010.17
2018-02-14T07:50:10.464Z,1010.16
2018-02-14T07:51:10.457Z,1010.21
2018-02-14T07:52:10.457Z,1010.21
2018-02-14T07:53:10.472Z,1010.26
2018-02-14T07:54:10.458Z,1010.27
2018-02-14T07:55:10.469Z,1010.31
2018-02-14T07:56:10.460Z,1010.28
2018-02-14T07:57:10.513Z,1010.32
2018-02-14T07:58:10.461Z,1010.25
2018-02-14T07:59:10.457Z,1010.29
2018-02-14T08:00:10.564Z,1010.37
2018-02-14T08:01:10.468Z,1010.30
2018-02-14T08:02:10.476Z,1010.39
2018-02-14T08:03:10.459Z,1010.36
2018-02-14T08:04:10.507Z,1010.34
2018-02-14T08:05:10.475Z,1010.32
2018-02-14T08:06:10.467Z,1010.39
2018-02-14T08:07:10.523Z,1010.41
2018-02-14T08:08:10.495Z,1010.41
2018-02-14T08:09:10.482Z,1010.42
2018-02-14T08:10:10.462Z,1010.51
2018-02-14T08:11:10.458Z,1010.41
2018-02-14T08:12:10.463Z,1010.43
2018-02-14T08:13:10.464Z,1010.51
2018-02-14T08:14:10.471Z,1010.48
2018-02-14T08:15:10.461Z,1010.49
2018-02-14T08:16:10.485Z,1010.52
2018-02-14T08:17:10.463Z,1010.49
2018-02-14T08:18:10.462Z,1010.52
2018-02-14T08:19:10.468Z,1010.50
2018-02-14T08:20:10.470Z,1010.55
2018-02-14T08:21:10.460Z,1010.59
2018-02-14T08:22:10.530Z,1010.55
2018-02-14T08:23:10.476Z,1010.55
2018-02-14T08:24:10.464Z,1010.51
2018-02-14T08:25:10.517Z,1010.57
2018-02-14T08:26:10.460Z,1010.52
2018-02-14T08:27:10.466Z,1010.48
2018-02-14T08:28:10.474Z,1010.49
2018-02-14T08:29:10.462Z,1010.49
2018-02-14T08:30:10.480Z,1010.51
2018-02-14T08:31:10.471Z,1010.48
2018-02-14T08:32:10.468Z,1010.53
2018-02-14T08:33:10.468Z,1010.52
2018-02-14T08:34:10.468Z,1010.53
2018-02-14T08:35:10.465Z,1010.54
2018-02-14T08:36:10.470Z,1010.60
2018-02-14T08:37:10.466Z,1010.60
2018-02-14T08:38:10.488Z,1010.55
2018-02-14T08:39:10.572Z,1010.57
2018-02-14T08:40:10.467Z,1010.60
2018-02-14T08:41:10.465Z,1010.53
2018-02-14T08:42:10.460Z,1010.61
2018-02-14T08:43:10.542Z,1010.55
2018-02-14T08:44:10.469Z,1010.56
2018-02-14T08:45:10.552Z,1010.52
2018-02-14T08:46:10.487Z,1010.58
2018-02-14T08:47:10.571Z,1010.61
2018-02-14T08:48:10.471Z,1010.59
2018-02-14T08:49:10.579Z,1010.62
2018-02-14T08:50:10.469Z,1010.61
2018-02-14T08:51:10.491Z,1010.61
2018-02-14T08:52:10.484Z,1010.66
2018-02-14T08:53:10.507Z,1010.69
2018-02-14T08:54:10.472Z,1010.68
2018-02-14T08:55:10.473Z,1010.70
2018-02-14T08:56:10.474Z,1010.71
2018-02-14T08:57:10.530Z,1010.71
2018-02-14T08:58:10.537Z,1010.80
2018-02-14T08:59:10.543Z,1010.71
2018-02-14T09:00:10.478Z,1010.77
2018-02-14T09:01:10.558Z,1010.78
2018-02-14T09:02:10.473Z,1010.82
2018-02-14T09:03:10.575Z,1010.73
2018-02-14T09:04:10.478Z,1010.72
2018-02-14T09:05:10.583Z,1010.71
2018-02-14T09:06:10.473Z,1010.73
2018-02-14T09:07:10.495Z,1010.71
2018-02-14T09:08:10.474Z,1010.66
2018-02-14T09:09:10.509Z,1010.74
2018-02-14T09:10:10.476Z,1010.74
2018-02-14T09:11:10.527Z,1010.72
2018-02-14T09:12:10.480Z,1010.69
2018-02-14T09:13:10.536Z,1010.75
2018-02-14T09:14:10.491Z,1010.71
2018-02-14T09:15:10.557Z,1010.71
2018-02-14T09:16:10.488Z,1010.80
2018-02-14T09:17:10.576Z,1010.78
2018-02-14T09:18:10.486Z,1010.74
2018-02-14T09:19:10.575Z,1010.81
2018-02-14T09:20:10.478Z,1010.85
2018-02-14T09:21:10.596Z,1010.78
2018-02-14T09:22:10.524Z,1010.81
2018-02-14T09:23:10.573Z,1010.77
2018-02-14T09:24:10.486Z,1010.80
2018-02-14T09:25:10.589Z,1010.80
2018-02-14T09:26:10.489Z,1010.76
2018-02-14T09:27:10.486Z,1010.76
2018-02-14T09:28:10.489Z,1010.79
2018-02-14T09:29:10.511Z,1010.78
2018-02-14T09:30:10.489Z,1010.76
2018-02-14T09:31:10.526Z,1010.76
2018-02-14T09:32:10.493Z,1010.81
2018-02-14T09:33:10.537Z,1010.80
2018-02-14T09:34:10.490Z,1010.80
2018-02-14T09:35:10.552Z,1010.84
2018-02-14T09:36:10.521Z,1010.87
2018-02-14T09:37:10.567Z,1010.88
2018-02-14T09:38:10.497Z,1010.85
2018-02-14T09:39:10.498Z,1010.80
2018-02-14T09:40:10.504Z,1010.87
2018-02-14T09:41:10.599Z,1010.87
2018-02-14T09:42:10.506Z,1010.86
2018-02-14T09:43:10.612Z,1010.88
2018-02-14T09:44:10.509Z,1010.89
2018-02-14T09:45:10.517Z,1010.91
2018-02-14T09:46:10.501Z,1010.83
2018-02-14T09:47:10.531Z,1010.87
2018-02-14T09:48:10.507Z,1010.85
2018-02-14T09:49:10.543Z,1010.88
2018-02-14T09:50:10.527Z,1010.95
2018-02-14T09:51:10.561Z,1010.87
2018-02-14T09:52:10.532Z,1010.94
2018-02-14T09:53:10.508Z,1010.93
2018-02-14T09:54:10.530Z,1010.91
2018-02-14T09:55:10.577Z,1010.98
2018-02-14T09:56:10.518Z,1010.97
2018-02-14T09:57:10.527Z,1010.98
2018-02-14T09:58:10.521Z,1011.00
2018-02-14T09:59:10.608Z,1011.00
2018-02-14T10:00:10.567Z,1011.00
2018-02-14T10:01:10.623Z,1011.02
2018-02-14T10:02:10.523Z,1011.03
2018-02-14T10:03:10.647Z,1010.99
2018-02-14T10:04:10.526Z,1010.99
2018-02-14T10:05:10.529Z,1010.94
2018-02-14T10:06:10.561Z,1010.98
2018-02-14T10:07:10.559Z,1010.94
2018-02-14T10:08:10.542Z,1010.89
2018-02-14T10:09:10.527Z,1010.89
2018-02-14T10:10:10.578Z,1010.94
2018-02-14T10:11:10.535Z,1010.96
2018-02-14T10:12:10.600Z,1010.94
2018-02-14T10:13:10.560Z,1010.93
2018-02-14T10:14:10.553Z,1010.96
2018-02-14T10:15:10.542Z,1010.97
2018-02-14T10:16:10.560Z,1010.95
2018-02-14T10:17:10.540Z,1010.91
2018-02-14T10:18:10.544Z,1011.01
2018-02-14T10:19:10.644Z,1010.95
2018-02-14T10:20:10.547Z,1011.00
2018-02-14T10:21:10.550Z,1011.04
2018-02-14T10:22:10.555Z,1011.10
2018-02-14T10:23:10.560Z,1011.02
2018-02-14T10:24:10.552Z,1011.03
2018-02-14T10:25:10.560Z,1011.00
2018-02-14T10:26:10.556Z,1011.01
2018-02-14T10:27:10.635Z,1010.99
2018-02-14T10:28:10.560Z,1011.00
2018-02-14T10:29:10.602Z,1010.99
2018-02-14T10:30:10.797Z,1010.99
2018-02-14T10:31:10.615Z,1010.91
2018-02-14T10:32:10.567Z,1010.94
2018-02-14T10:33:10.632Z,1010.97
2018-02-14T10:34:10.570Z,1010.97
2018-02-14T10:35:10.645Z,1011.01
2018-02-14T10:36:10.576Z,1011.01
2018-02-14T10:37:10.659Z,1011.03
2018-02-14T10:38:10.599Z,1011.01
2018-02-14T10:39:10.677Z,1011.03
2018-02-14T10:40:10.580Z,1011.00
2018-02-14T10:41:10.691Z,1011.03
2018-02-14T10:42:10.586Z,1011.08
2018-02-14T10:43:10.597Z,1010.99
2018-02-14T10:44:10.793Z,1011.03
2018-02-14T10:45:10.592Z,1011.03
2018-02-14T10:46:10.588Z,1011.03
2018-02-14T10:47:10.592Z,1011.05
2018-02-14T10:48:10.597Z,1011.04
2018-02-14T10:49:11.399Z,1011.03
2018-02-14T10:50:10.596Z,1010.99
2018-02-14T10:51:10.593Z,1010.98
2018-02-14T10:52:10.599Z,1011.01
2018-02-14T10:53:10.600Z,1010.99
2018-02-14T10:54:10.674Z,1011.03
2018-02-14T10:55:10.601Z,1011.00
2018-02-14T10:56:10.605Z,1010.96
2018-02-14T10:57:11.382Z,1010.97
2018-02-14T10:58:10.615Z,1010.97
2018-02-14T10:59:10.618Z,1010.93
2018-02-14T11:00:10.615Z,1010.91
2018-02-14T11:01:10.623Z,1010.96
2018-02-14T11:02:10.646Z,1010.98
2018-02-14T11:03:10.619Z,1010.94
2018-02-14T11:04:11.664Z,1010.94
2018-02-14T11:05:10.619Z,1010.91
2018-02-14T11:06:10.715Z,1010.93
2018-02-14T11:07:10.628Z,1010.94
2018-02-14T11:08:10.635Z,1010.89
2018-02-14T11:09:10.636Z,1010.93
2018-02-14T11:10:12.727Z,1010.95
2018-02-14T11:11:10.638Z,1010.90
2018-02-14T11:12:10.664Z,1010.88
2018-02-14T11:13:10.633Z,1010.94
2018-02-14T11:14:10.666Z,1010.92
2018-02-14T11:15:10.657Z,1010.88
2018-02-14T11:16:10.696Z,1010.88
2018-02-14T11:17:10.649Z,1010.88
2018-02-14T11:18:10.655Z,1010.94
2018-02-14T11:19:10.662Z,1010.95
2018-02-14T11:20:10.657Z,1010.93
2018-02-14T11:21:10.709Z,1010.95
2018-02-14T11:22:10.738Z,1010.97
2018-02-14T11:23:10.669Z,1010.93
2018-02-14T11:24:10.751Z,1010.95
2018-02-14T11:25:10.666Z,1010.98
2018-02-14T11:26:10.674Z,1010.94
2018-02-14T11:27:10.676Z,1010.96
2018-02-14T11:28:10.681Z,1010.94
2018-02-14T11:29:10.680Z,1010.95
2018-02-14T11:30:10.677Z,1010.96
2018-02-14T11:31:10.724Z,1010.92
2018-02-14T11:32:10.679Z,1011.02
2018-02-14T11:33:10.683Z,1010.97
2018-02-14T11:34:10.705Z,1010.95
2018-02-14T11:35:10.691Z,1010.97
2018-02-14T11:36:10.698Z,1010.91
2018-02-14T11:37:10.714Z,1010.84
2018-02-14T11:38:10.695Z,1010.88
2018-02-14T11:39:10.699Z,1010.86
2018-02-14T11:40:10.710Z,1010.89
2018-02-14T11:41:10.791Z,1010.82
2018-02-14T11:42:10.716Z,1010.81
2018-02-14T11:43:10.717Z,1010.83
2018-02-14T11:44:10.774Z,1010.80
2018-02-14T11:45:10.829Z,1010.84
2018-02-14T11:46:10.797Z,1010.82
2018-02-14T11:47:10.721Z,1010.86
2018-02-14T11:48:10.813Z,1010.86
2018-02-14T11:49:10.749Z,1010.88
2018-02-14T11:50:10.825Z,1010.86
2018-02-14T11:51:11.126Z,1010.85
2018-02-14T11:52:10.838Z,1010.84
2018-02-14T11:53:10.741Z,1010.82
2018-02-14T11:54:10.856Z,1010.82
2018-02-14T11:55:10.772Z,1010.84
2018-02-14T11:56:11.786Z,1010.81
2018-02-14T11:57:10.748Z,1010.83
2018-02-14T11:58:10.746Z,1010.84
2018-02-14T11:59:11.830Z,1010.80
2018-02-14T12:00:10.760Z,1010.86
2018-02-14T12:01:10.770Z,1010.85
2018-02-14T12:02:10.810Z,1010.84
2018-02-14T12:03:10.769Z,1010.92
2018-02-14T12:04:10.765Z,1010.90
2018-02-14T12:05:10.826Z,1010.86